createdAt,value
2018-03-20T00:01:34.192Z,5.53
2018-03-20T00:04:02.455Z,5.20
2018-03-20T00:06:30.731Z,5.17
2018-03-20T00:08:59.075Z,5.20
2018-03-20T00:11:27.321Z,5.20
2018-03-20T00:13:55.519Z,5.33
2018-03-20T00:16:24.660Z,5.00
2018-03-20T00:18:53.055Z,5.23
2018-03-20T00:21:21.272Z,5.10
2018-03-20T00:23:51.559Z,5.13
2018-03-20T00:26:19.782Z,5.03
2018-03-20T00:28:48.746Z,5.13
2018-03-20T00:31:17.912Z,5.70
2018-03-20T00:33:46.144Z,5.57
2018-03-20T00:36:14.378Z,5.60
2018-03-20T00:38:44.142Z,5.27
2018-03-20T00:41:12.412Z,4.97
2018-03-20T00:43:41.404Z,5.70
2018-03-20T00:46:09.682Z,5.57
2018-03-20T00:48:38.824Z,5.13
2018-03-20T00:51:07.054Z,5.20
2018-03-20T00:53:36.041Z,5.30
2018-03-20T00:56:05.073Z,5.23
2018-03-20T00:58:33.388Z,4.80
2018-03-20T01:01:01.617Z,5.27
2018-03-20T01:03:29.990Z,4.87
2018-03-20T01:05:58.238Z,5.17
2018-03-20T01:08:26.516Z,5.20
2018-03-20T01:10:54.956Z,4.87
2018-03-20T01:13:23.187Z,4.90
2018-03-20T01:15:51.449Z,4.60
2018-03-20T01:18:19.795Z,4.53
2018-03-20T01:20:48.019Z,4.47
2018-03-20T01:23:21.193Z,4.40
2018-03-20T01:25:54.250Z,4.53
2018-03-20T01:28:22.831Z,5.07
2018-03-20T01:30:51.091Z,4.87
2018-03-20T01:33:22.800Z,5.37
2018-03-20T01:35:51.131Z,5.10
2018-03-20T01:38:19.828Z,5.07
2018-03-20T01:40:48.116Z,4.47
2018-03-20T01:43:17.271Z,4.40
2018-03-20T01:45:46.926Z,4.13
2018-03-20T01:48:15.426Z,4.33
2018-03-20T01:50:43.764Z,4.17
2018-03-20T01:53:19.033Z,3.73
2018-03-20T01:55:48.453Z,3.80
2018-03-20T01:58:16.708Z,3.60
2018-03-20T02:00:44.959Z,3.27
2018-03-20T02:03:13.364Z,3.67
2018-03-20T02:05:41.637Z,3.90
2018-03-20T02:08:10.724Z,3.57
2018-03-20T02:10:39.008Z,3.23
2018-03-20T02:13:07.291Z,3.17
2018-03-20T02:15:36.295Z,3.30
2018-03-20T02:18:05.070Z,3.40
2018-03-20T02:20:33.359Z,2.90
2018-03-20T02:23:01.601Z,3.13
2018-03-20T02:25:29.869Z,3.30
2018-03-20T02:27:58.182Z,3.37
2018-03-20T02:30:26.428Z,3.20
2018-03-20T02:32:54.662Z,3.30
2018-03-20T02:35:23.694Z,3.27
2018-03-20T02:37:52.011Z,3.37
2018-03-20T02:40:20.256Z,3.50
2018-03-20T02:42:48.762Z,3.53
2018-03-20T02:45:17.039Z,3.17
2018-03-20T02:47:45.421Z,3.00
2018-03-20T02:50:13.659Z,3.30
2018-03-20T02:52:42.010Z,3.83
2018-03-20T02:55:10.313Z,3.90
2018-03-20T02:57:38.705Z,3.60
2018-03-20T03:00:07.221Z,3.80
2018-03-20T03:02:36.241Z,4.47
2018-03-20T03:05:05.991Z,3.87
2018-03-20T03:07:35.226Z,4.57
2018-03-20T03:10:03.602Z,4.40
2018-03-20T03:12:31.900Z,4.70
2018-03-20T03:15:00.142Z,4.60
2018-03-20T03:17:28.424Z,4.97
2018-03-20T03:19:56.680Z,5.13
2018-03-20T03:22:24.898Z,4.70
2018-03-20T03:24:53.287Z,4.43
2018-03-20T03:27:21.646Z,5.23
2018-03-20T03:29:49.866Z,5.40
2018-03-20T03:32:19.041Z,4.77
2018-03-20T03:34:47.504Z,5.20
2018-03-20T03:37:15.755Z,5.20
2018-03-20T03:39:44.004Z,5.40
2018-03-20T03:42:13.162Z,4.87
2018-03-20T03:44:41.434Z,4.83
2018-03-20T03:47:09.825Z,4.77
2018-03-20T03:49:38.100Z,3.90
2018-03-20T03:52:06.300Z,5.07
2018-03-20T03:54:34.503Z,5.33
2018-03-20T03:57:02.818Z,4.87
2018-03-20T03:59:31.199Z,4.60
2018-03-20T04:01:59.680Z,4.80
2018-03-20T04:04:27.969Z,4.90
2018-03-20T04:06:56.412Z,4.73
2018-03-20T04:09:26.049Z,4.87
2018-03-20T04:11:54.293Z,5.33
2018-03-20T04:14:22.615Z,5.13
2018-03-20T04:16:50.835Z,4.73
2018-03-20T04:19:19.317Z,4.80
2018-03-20T04:21:47.641Z,4.97
2018-03-20T04:24:17.409Z,5.20
2018-03-20T04:26:45.697Z,5.70
2018-03-20T04:29:13.939Z,5.73
2018-03-20T04:31:42.215Z,5.43
2018-03-20T04:34:11.486Z,5.73
2018-03-20T04:36:40.129Z,6.70
2018-03-20T04:39:08.447Z,5.90
2018-03-20T04:41:36.675Z,5.60
2018-03-20T04:44:04.893Z,6.17
2018-03-20T04:46:33.286Z,5.93
2018-03-20T04:49:01.511Z,5.73
2018-03-20T04:51:30.826Z,6.03
2018-03-20T04:53:59.245Z,5.90
2018-03-20T04:56:27.499Z,5.90
2018-03-20T04:58:55.808Z,6.83
2018-03-20T05:01:24.521Z,6.50
2018-03-20T05:03:53.520Z,5.50
2018-03-20T05:06:21.852Z,5.87
2018-03-20T05:08:50.082Z,5.50
2018-03-20T05:11:18.364Z,5.57
2018-03-20T05:13:47.624Z,5.27
2018-03-20T05:16:16.926Z,5.53
2018-03-20T05:19:04.065Z,5.63
2018-03-20T05:24:33.966Z,5.53
2018-03-20T05:27:02.254Z,5.83
2018-03-20T05:29:30.559Z,6.27
2018-03-20T05:31:58.782Z,4.70
2018-03-20T05:34:27.041Z,4.93
2018-03-20T05:36:56.050Z,4.83
2018-03-20T05:39:24.386Z,4.50
2018-03-20T05:41:53.503Z,4.60
2018-03-20T05:44:21.990Z,4.77
2018-03-20T05:49:58.007Z,4.03
2018-03-20T05:52:26.307Z,4.37
2018-03-20T05:54:54.577Z,3.80
2018-03-20T05:57:22.820Z,3.77
2018-03-20T05:59:51.078Z,3.77
2018-03-20T06:02:20.115Z,4.10
2018-03-20T06:04:49.412Z,4.20
2018-03-20T06:07:17.654Z,4.30
2018-03-20T06:09:45.959Z,4.17
2018-03-20T06:12:14.179Z,6.17
2018-03-20T06:14:42.618Z,6.87
2018-03-20T06:17:10.915Z,6.97
2018-03-20T06:19:39.737Z,6.37
2018-03-20T06:22:08.727Z,5.90
2018-03-20T06:24:36.951Z,5.33
2018-03-20T06:27:05.369Z,5.73
2018-03-20T06:29:35.255Z,5.00
2018-03-20T06:32:03.487Z,4.77
2018-03-20T06:34:32.474Z,4.43
2018-03-20T06:37:00.747Z,5.20
2018-03-20T06:39:28.976Z,3.50
2018-03-20T06:41:57.252Z,3.37
2018-03-20T06:44:25.632Z,3.37
2018-03-20T06:46:53.886Z,3.60
2018-03-20T06:49:22.193Z,3.47
2018-03-20T06:51:50.500Z,2.90
2018-03-20T06:54:19.773Z,3.63
2018-03-20T06:56:48.041Z,2.93
2018-03-20T06:59:16.434Z,3.33
2018-03-20T07:01:44.802Z,3.17
2018-03-20T07:04:13.189Z,2.63
2018-03-20T07:06:41.570Z,2.90
2018-03-20T07:09:10.446Z,2.63
2018-03-20T07:11:38.666Z,2.90
2018-03-20T07:14:06.908Z,2.77
2018-03-20T07:16:35.140Z,2.60
2018-03-20T07:19:04.791Z,2.70
2018-03-20T07:21:34.118Z,2.60
2018-03-20T07:24:04.331Z,2.73
2018-03-20T07:26:32.625Z,2.83
2018-03-20T07:29:01.202Z,2.63
2018-03-20T07:31:29.553Z,3.07
2018-03-20T07:33:57.843Z,2.63
2018-03-20T07:36:26.672Z,2.37
2018-03-20T07:38:55.114Z,2.93
2018-03-20T07:41:23.603Z,2.90
2018-03-20T07:43:51.964Z,2.73
2018-03-20T07:46:21.278Z,3.27
2018-03-20T07:48:49.613Z,3.13
2018-03-20T07:51:18.758Z,2.87
2018-03-20T07:53:47.228Z,2.80
2018-03-20T07:56:16.365Z,2.93
2018-03-20T07:58:45.544Z,3.47
2018-03-20T08:01:13.773Z,3.13
2018-03-20T08:03:42.158Z,3.27
2018-03-20T08:06:11.159Z,3.17
2018-03-20T08:08:39.381Z,3.87
2018-03-20T08:11:07.731Z,2.53
2018-03-20T08:13:36.002Z,3.20
2018-03-20T08:16:04.293Z,3.20
2018-03-20T08:18:32.570Z,3.33
2018-03-20T08:21:00.898Z,3.33
2018-03-20T08:23:30.031Z,3.50
2018-03-20T08:25:58.293Z,3.10
2018-03-20T08:28:26.739Z,3.20
2018-03-20T08:30:55.187Z,3.33
2018-03-20T08:33:24.217Z,2.60
2018-03-20T08:35:52.458Z,2.93
2018-03-20T08:38:20.737Z,3.17
2018-03-20T08:40:49.039Z,2.57
2018-03-20T08:43:17.339Z,3.00
2018-03-20T08:45:46.393Z,3.17
2018-03-20T08:48:14.615Z,3.73
2018-03-20T08:50:43.657Z,2.80
2018-03-20T08:53:11.952Z,3.17
2018-03-20T08:55:41.231Z,2.97
2018-03-20T08:58:09.728Z,3.93
2018-03-20T09:00:38.009Z,3.40
2018-03-20T09:03:06.251Z,3.60
2018-03-20T09:05:35.396Z,3.57
2018-03-20T09:08:03.622Z,3.50
2018-03-20T09:10:32.080Z,3.30
2018-03-20T09:13:01.094Z,4.13
2018-03-20T09:15:29.804Z,4.23
2018-03-20T09:17:58.104Z,3.73
2018-03-20T09:20:27.165Z,3.63
2018-03-20T09:22:55.552Z,3.53
2018-03-20T09:25:23.948Z,3.97
2018-03-20T09:27:52.407Z,4.40
2018-03-20T09:30:21.538Z,4.13
2018-03-20T09:32:49.822Z,3.67
2018-03-20T09:35:18.064Z,3.43
2018-03-20T09:37:46.401Z,3.33
2018-03-20T09:40:14.729Z,4.17
2018-03-20T09:42:43.609Z,3.20
2018-03-20T09:45:12.202Z,3.70
2018-03-20T09:47:40.487Z,3.20
2018-03-20T09:50:08.840Z,4.30
2018-03-20T09:52:37.211Z,3.60
2018-03-20T09:55:06.316Z,3.63
2018-03-20T09:57:35.181Z,3.57
2018-03-20T10:00:04.495Z,3.87
2018-03-20T10:02:32.924Z,4.13
2018-03-20T10:05:01.258Z,4.20
2018-03-20T10:07:29.550Z,3.17
2018-03-20T10:09:57.791Z,3.30
2018-03-20T10:12:26.833Z,3.30
2018-03-20T10:14:55.130Z,2.90
2018-03-20T10:17:23.410Z,2.53
2018-03-20T10:19:51.639Z,2.37
2018-03-20T10:22:26.299Z,3.27
2018-03-20T10:24:57.061Z,2.83
2018-03-20T10:27:26.071Z,2.23
2018-03-20T10:29:55.202Z,2.67
2018-03-20T10:32:23.449Z,2.20
2018-03-20T10:34:52.625Z,2.20
2018-03-20T10:37:20.907Z,1.80
2018-03-20T10:39:49.143Z,1.60
2018-03-20T10:42:17.475Z,1.80
2018-03-20T10:44:47.196Z,1.63
2018-03-20T10:47:16.273Z,2.27
2018-03-20T10:49:45.355Z,1.70
2018-03-20T10:52:13.631Z,1.70
2018-03-20T10:54:41.998Z,1.67
2018-03-20T10:57:10.628Z,1.70
2018-03-20T10:59:38.965Z,1.70
2018-03-20T11:02:12.968Z,1.40
2018-03-20T11:04:41.228Z,1.40
2018-03-20T11:07:09.487Z,1.57
2018-03-20T11:09:38.561Z,1.80
2018-03-20T11:12:07.612Z,1.40
2018-03-20T11:14:35.890Z,1.33
2018-03-20T11:17:04.134Z,1.80
2018-03-20T11:19:32.450Z,1.30
2018-03-20T11:22:00.710Z,1.47
2018-03-20T11:24:29.244Z,1.70
2018-03-20T11:26:58.284Z,1.83
2018-03-20T11:29:26.529Z,1.50
2018-03-20T11:31:55.564Z,1.20
2018-03-20T11:34:23.842Z,1.53
2018-03-20T11:36:52.139Z,1.70
2018-03-20T11:39:22.160Z,1.67
2018-03-20T11:41:50.454Z,1.70
2018-03-20T11:44:18.808Z,1.70
2018-03-20T11:46:47.250Z,1.50
2018-03-20T11:49:16.268Z,1.67
2018-03-20T11:51:44.551Z,1.10
2018-03-20T11:54:12.901Z,1.17
2018-03-20T11:56:41.922Z,1.30
2018-03-20T11:59:10.189Z,1.30
2018-03-20T12:01:38.707Z,1.30
2018-03-20T12:04:07.005Z,1.30
2018-03-20T12:06:36.036Z,2.17
2018-03-20T12:12:10.132Z,2.20
2018-03-20T12:14:38.387Z,2.10
2018-03-20T12:17:08.156Z,2.67
2018-03-20T12:19:37.297Z,2.20
2018-03-20T12:22:06.327Z,2.17
2018-03-20T12:24:35.154Z,2.10
2018-03-20T12:27:03.568Z,2.60
2018-03-20T12:29:31.849Z,2.40
2018-03-20T12:32:00.914Z,2.40
2018-03-20T12:34:29.149Z,2.10
2018-03-20T12:36:57.415Z,1.97
2018-03-20T12:39:25.702Z,1.87
2018-03-20T12:41:54.744Z,2.30
2018-03-20T12:44:22.949Z,2.53
2018-03-20T12:46:51.330Z,2.27
2018-03-20T12:49:19.592Z,2.47
2018-03-20T12:51:47.925Z,1.90
2018-03-20T12:54:17.116Z,2.10
2018-03-20T12:56:46.104Z,1.87
2018-03-20T12:59:15.190Z,2.00
2018-03-20T13:01:43.439Z,1.90
2018-03-20T13:04:11.738Z,1.90
2018-03-20T13:06:40.220Z,2.17
2018-03-20T13:09:18.822Z,1.70
2018-03-20T13:11:47.084Z,1.80
2018-03-20T13:14:15.370Z,2.20
2018-03-20T13:16:43.668Z,1.93
2018-03-20T13:19:12.012Z,2.07
2018-03-20T13:21:40.819Z,2.07
2018-03-20T13:24:09.036Z,2.00
2018-03-20T13:26:38.081Z,2.00
2018-03-20T13:29:06.406Z,1.80
2018-03-20T13:31:35.463Z,1.90
2018-03-20T13:34:03.742Z,1.73
2018-03-20T13:36:31.983Z,2.13
2018-03-20T13:39:00.555Z,2.30
2018-03-20T13:41:29.593Z,1.80
2018-03-20T13:43:58.367Z,2.10
2018-03-20T13:46:27.635Z,1.77
2018-03-20T13:48:56.673Z,2.10
2018-03-20T13:51:25.161Z,2.10
2018-03-20T13:53:53.441Z,2.53
2018-03-20T13:56:21.725Z,2.73
2018-03-20T13:58:49.987Z,2.50
2018-03-20T14:01:18.273Z,2.23
2018-03-20T14:03:46.539Z,1.80
2018-03-20T14:06:15.497Z,1.87
2018-03-20T14:08:43.886Z,1.80
2018-03-20T14:11:12.914Z,2.03
2018-03-20T14:13:41.181Z,2.07
2018-03-20T14:16:09.779Z,1.90
2018-03-20T14:18:38.029Z,1.70
2018-03-20T14:21:06.248Z,2.17
2018-03-20T14:23:34.883Z,1.90
2018-03-20T14:26:03.215Z,1.73
2018-03-20T14:28:31.504Z,2.00
2018-03-20T14:30:59.954Z,1.70
2018-03-20T14:33:28.826Z,1.70
2018-03-20T14:35:57.135Z,2.17
2018-03-20T14:38:25.415Z,2.20
2018-03-20T14:40:53.688Z,2.10
2018-03-20T14:43:22.018Z,2.10
2018-03-20T14:45:50.491Z,2.10
2018-03-20T14:48:19.486Z,2.10
2018-03-20T14:50:48.569Z,1.90
2018-03-20T14:53:17.598Z,1.93
2018-03-20T14:55:45.832Z,1.73
2018-03-20T14:58:14.166Z,1.90
2018-03-20T15:00:42.419Z,2.03
2018-03-20T15:03:11.440Z,2.13
2018-03-20T15:05:39.864Z,2.90
2018-03-20T15:08:08.220Z,2.20
2018-03-20T15:10:36.564Z,2.37
2018-03-20T15:13:05.099Z,2.20
2018-03-20T15:15:35.105Z,2.10
2018-03-20T15:18:03.340Z,2.43
2018-03-20T15:20:32.452Z,2.33
2018-03-20T15:23:01.446Z,1.83
2018-03-20T15:25:29.757Z,2.00
2018-03-20T15:27:58.129Z,1.80
2018-03-20T15:30:26.600Z,2.00
2018-03-20T15:32:54.834Z,2.10
2018-03-20T15:35:23.476Z,1.87
2018-03-20T15:37:51.734Z,2.03
2018-03-20T15:40:19.994Z,2.67
2018-03-20T15:42:48.355Z,1.67
2018-03-20T15:45:17.531Z,2.10
2018-03-20T15:47:45.897Z,1.90
2018-03-20T15:50:14.935Z,1.87
2018-03-20T15:52:43.915Z,1.80
2018-03-20T15:55:12.170Z,1.60
2018-03-20T15:57:40.415Z,1.43
2018-03-20T16:00:09.503Z,1.83
2018-03-20T16:02:37.828Z,2.20
2018-03-20T16:05:06.130Z,1.53
2018-03-20T16:07:34.405Z,2.03
2018-03-20T16:10:02.840Z,1.90
2018-03-20T16:12:31.241Z,2.10
2018-03-20T16:14:59.526Z,2.80
2018-03-20T16:17:27.828Z,1.37
2018-03-20T16:19:56.995Z,1.47
2018-03-20T16:22:25.353Z,1.40
2018-03-20T16:24:53.671Z,1.63
2018-03-20T16:27:22.768Z,1.63
2018-03-20T16:29:51.797Z,1.77
2018-03-20T16:32:20.085Z,1.77
2018-03-20T16:34:48.472Z,2.40
2018-03-20T16:37:16.757Z,1.93
2018-03-20T16:39:45.040Z,1.90
2018-03-20T16:42:13.903Z,1.43
2018-03-20T16:44:42.200Z,2.10
2018-03-20T16:47:10.476Z,2.20
2018-03-20T16:49:39.400Z,1.80
2018-03-20T16:52:07.638Z,2.03
2018-03-20T16:54:35.871Z,2.17
2018-03-20T16:57:04.263Z,1.70
2018-03-20T16:59:33.317Z,1.90
2018-03-20T17:02:01.692Z,1.80
2018-03-20T17:04:30.775Z,2.00
2018-03-20T17:06:59.068Z,2.00
2018-03-20T17:09:27.298Z,1.90
2018-03-20T17:11:55.592Z,2.37
2018-03-20T17:14:23.825Z,1.90
2018-03-20T17:16:52.076Z,2.00
2018-03-20T17:19:21.192Z,1.73
2018-03-20T17:21:50.257Z,1.80
2018-03-20T17:24:18.492Z,2.10
2018-03-20T17:26:46.916Z,2.23
2018-03-20T17:29:15.210Z,2.13
2018-03-20T17:31:43.458Z,2.30
2018-03-20T17:34:12.470Z,1.83
2018-03-20T17:36:40.853Z,2.50
2018-03-20T17:39:10.041Z,1.90
2018-03-20T17:41:39.842Z,2.30
2018-03-20T17:44:08.240Z,2.50
2018-03-20T17:46:36.611Z,2.40
2018-03-20T17:49:04.925Z,2.23
2018-03-20T17:51:33.413Z,2.33
2018-03-20T17:54:01.703Z,2.60
2018-03-20T17:56:30.740Z,2.77
2018-03-20T17:58:59.062Z,2.83
2018-03-20T18:01:27.528Z,3.27
2018-03-20T18:03:55.804Z,3.10
2018-03-20T18:06:25.002Z,4.23
2018-03-20T18:08:53.313Z,3.83
2018-03-20T18:11:22.198Z,4.60
2018-03-20T18:13:51.218Z,3.97
2018-03-20T18:16:19.528Z,4.00
2018-03-20T18:18:47.789Z,4.03
2018-03-20T18:21:16.091Z,4.07
2018-03-20T18:23:44.373Z,3.60
2018-03-20T18:26:13.683Z,4.20
2018-03-20T18:28:44.035Z,4.27
2018-03-20T18:31:12.575Z,4.20
2018-03-20T18:33:40.870Z,4.33
2018-03-20T18:36:09.163Z,4.93
2018-03-20T18:38:38.253Z,4.70
2018-03-20T18:41:06.606Z,5.60
2018-03-20T18:43:34.982Z,4.83
2018-03-20T18:46:03.288Z,4.87
2018-03-20T18:48:31.643Z,5.33
2018-03-20T18:51:00.079Z,4.50
2018-03-20T18:53:28.458Z,4.83
2018-03-20T18:55:58.533Z,5.03
2018-03-20T18:58:28.000Z,5.60
2018-03-20T19:00:56.279Z,5.00
2018-03-20T19:03:24.609Z,5.97
2018-03-20T19:05:53.584Z,6.60
2018-03-20T19:08:21.854Z,5.73
2018-03-20T19:10:52.086Z,5.40
2018-03-20T19:13:20.355Z,5.43
2018-03-20T19:15:48.634Z,5.53
2018-03-20T19:18:17.064Z,5.23
2018-03-20T19:20:45.337Z,5.47
2018-03-20T19:23:14.346Z,5.23
2018-03-20T19:25:42.736Z,5.03
2018-03-20T19:28:11.032Z,5.37
2018-03-20T19:30:40.154Z,5.93
2018-03-20T19:33:09.527Z,5.00
2018-03-20T19:35:37.826Z,5.53
2018-03-20T19:38:06.111Z,6.53
2018-03-20T19:40:34.380Z,5.87
2018-03-20T19:43:02.883Z,5.80
2018-03-20T19:45:31.145Z,6.03
2018-03-20T19:47:59.409Z,5.47
2018-03-20T19:50:28.229Z,4.77
2018-03-20T19:52:56.710Z,5.53
2018-03-20T19:55:25.070Z,5.67
2018-03-20T19:57:53.356Z,5.40
2018-03-20T20:00:21.668Z,6.10
2018-03-20T20:02:50.875Z,5.73
2018-03-20T20:05:20.593Z,5.50
2018-03-20T20:07:49.875Z,5.47
2018-03-20T20:10:18.335Z,5.73
2018-03-20T20:12:47.641Z,4.93
2018-03-20T20:15:15.969Z,5.37
2018-03-20T20:17:44.676Z,5.60
2018-03-20T20:20:13.184Z,4.73
2018-03-20T20:22:42.369Z,5.07
2018-03-20T20:25:10.674Z,5.00
2018-03-20T20:27:39.044Z,5.30
2018-03-20T20:30:07.481Z,5.70
2018-03-20T20:32:35.836Z,5.57
2018-03-20T20:35:04.299Z,5.83
2018-03-20T20:37:32.592Z,5.07
2018-03-20T20:40:01.032Z,5.37
2018-03-20T20:42:29.360Z,5.23
2018-03-20T20:44:58.844Z,5.03
2018-03-20T20:47:27.759Z,5.50
2018-03-20T20:49:56.823Z,5.80
2018-03-20T20:52:25.996Z,5.63
2018-03-20T20:54:54.297Z,5.20
2018-03-20T20:57:22.562Z,6.43
2018-03-20T20:59:50.795Z,5.03
2018-03-20T21:02:19.930Z,5.23
2018-03-20T21:04:48.223Z,5.37
2018-03-20T21:07:16.587Z,5.70
2018-03-20T21:09:44.824Z,4.60
2018-03-20T21:12:16.012Z,5.17
2018-03-20T21:14:45.623Z,4.70
2018-03-20T21:17:13.836Z,4.73
2018-03-20T21:19:43.406Z,4.63
2018-03-20T21:22:11.801Z,4.77
2018-03-20T21:24:40.061Z,5.20
2018-03-20T21:27:08.309Z,5.33
2018-03-20T21:29:36.814Z,4.67
2018-03-20T21:32:05.534Z,4.13
2018-03-20T21:34:34.547Z,4.27
2018-03-20T21:37:02.808Z,4.10
2018-03-20T21:39:31.073Z,5.00
2018-03-20T21:41:59.443Z,5.17
2018-03-20T21:44:27.655Z,5.20
2018-03-20T21:46:56.639Z,4.77
2018-03-20T21:49:25.805Z,4.40
2018-03-20T21:51:54.246Z,4.60
2018-03-20T21:54:22.556Z,3.87
2018-03-20T21:56:50.787Z,3.80
2018-03-20T21:59:19.217Z,4.07
2018-03-20T22:01:47.485Z,3.63
2018-03-20T22:04:15.854Z,4.07
2018-03-20T22:06:44.251Z,5.17
2018-03-20T22:09:12.466Z,5.33
2018-03-20T22:11:40.777Z,5.37
2018-03-20T22:14:09.773Z,4.67
2018-03-20T22:16:38.188Z,4.63
2018-03-20T22:19:06.435Z,4.63
2018-03-20T22:21:34.658Z,4.67
2018-03-20T22:24:04.619Z,4.90
2018-03-20T22:26:32.954Z,4.10
2018-03-20T22:29:01.185Z,4.47
2018-03-20T22:31:29.550Z,4.70
2018-03-20T22:33:58.540Z,4.47
2018-03-20T22:36:26.775Z,5.33
2018-03-20T22:38:54.992Z,4.43
2018-03-20T22:41:23.326Z,5.47
2018-03-20T22:43:51.694Z,4.83
2018-03-20T22:46:19.903Z,5.50
2018-03-20T22:48:48.172Z,4.50
2018-03-20T22:51:17.202Z,4.93
2018-03-20T22:53:45.622Z,4.50
2018-03-20T22:56:14.653Z,4.50
2018-03-20T22:58:43.684Z,4.63
2018-03-20T23:01:11.965Z,5.07
2018-03-20T23:03:41.122Z,4.77
2018-03-20T23:06:09.328Z,3.90
2018-03-20T23:08:38.561Z,4.30
2018-03-20T23:11:06.806Z,3.63
2018-03-20T23:13:35.130Z,4.13
2018-03-20T23:16:03.359Z,3.73
2018-03-20T23:18:31.852Z,4.37
2018-03-20T23:21:00.095Z,4.23
2018-03-20T23:23:28.315Z,3.87
2018-03-20T23:25:56.620Z,4.17
2018-03-20T23:28:24.990Z,4.53
2018-03-20T23:30:53.265Z,3.80
2018-03-20T23:33:21.774Z,3.67
2018-03-20T23:35:50.092Z,4.13
2018-03-20T23:38:19.254Z,3.80
2018-03-20T23:40:47.501Z,3.90
2018-03-20T23:43:15.881Z,3.77
2018-03-20T23:45:44.302Z,3.93
2018-03-20T23:48:13.351Z,4.40
2018-03-20T23:50:42.575Z,4.83
2018-03-20T23:53:10.800Z,4.40
2018-03-20T23:55:39.245Z,4.23
2018-03-20T23:58:07.564Z,4.13
